Time;durP1;ratioP1;P1;durP2;ratioP2;P2;SDS_P1;SDS_P2;PMS_P1;PMS_P2;Temp;Humidity;BMP_temperature;BMP_pressure;BME280_temperature;BME280_humidity;BME280_pressure;Samples;Min_cycle;Max_cycle;Signal;HPM_P1;HPM_P2
2022/06/05 00:02:17;;;;;;;15.60;14.20;;;;;;;14.95;97.44;97038.55;107320;1273;52422;-73
2022/06/05 00:04:58;;;;;;;15.60;14.10;;;;;;;14.93;97.75;97037.14;107375;1273;30627;-73
2022/06/05 00:07:37;;;;;;;14.80;13.50;;;;;;;14.94;97.93;97041.98;107290;1273;44828;-73
2022/06/05 00:10:14;;;;;;;14.30;12.90;;;;;;;14.91;98.03;97038.23;107355;1273;49280;-73
2022/06/05 00:12:52;;;;;;;17.00;15.30;;;;;;;14.89;98.30;97036.72;107215;1273;67851;-73
2022/06/05 00:15:24;;;;;;;17.50;15.70;;;;;;;14.87;98.65;97034.52;107303;1273;58455;-72
2022/06/05 00:17:55;;;;;;;18.90;17.10;;;;;;;14.86;98.82;97034.52;107313;1273;38024;-73
2022/06/05 00:20:26;;;;;;;16.40;14.80;;;;;;;14.85;99.08;97030.13;107327;1273;31558;-73
2022/06/05 00:22:57;;;;;;;18.80;17.00;;;;;;;14.82;99.15;97030.45;107322;1273;37669;-73
2022/06/05 00:25:39;;;;;;;18.90;17.10;;;;;;;14.81;99.26;97035.59;107196;1273;62200;-73
2022/06/05 00:28:15;;;;;;;18.20;16.50;;;;;;;14.80;99.33;97030.20;107400;1273;49882;-73
2022/06/05 00:30:53;;;;;;;18.10;16.40;;;;;;;14.81;99.46;97035.23;107330;1273;34489;-73
2022/06/05 00:33:35;;;;;;;18.10;16.30;;;;;;;14.78;99.43;97030.25;107359;1273;48460;-73
2022/06/05 00:36:17;;;;;;;17.50;15.80;;;;;;;14.72;99.19;97029.39;107353;1273;39799;-73
2022/06/05 00:38:57;;;;;;;17.80;16.00;;;;;;;14.63;99.07;97030.14;107248;1273;61429;-73
2022/06/05 00:41:43;;;;;;;17.60;15.80;;;;;;;14.55;99.17;97033.52;107298;1273;35737;-73
2022/06/05 00:44:18;;;;;;;16.00;14.40;;;;;;;14.51;99.27;97038.57;107346;1273;29977;-73
2022/06/05 00:46:51;;;;;;;16.60;15.00;;;;;;;14.49;99.45;97035.75;107281;1273;45984;-73
2022/06/05 00:49:26;;;;;;;14.90;13.40;;;;;;;14.46;99.46;97036.86;107326;1273;44759;-73
2022/06/05 00:51:57;;;;;;;14.80;12.80;;;;;;;14.42;99.39;97038.90;107307;1273;38424;-72
2022/06/05 00:54:28;;;;;;;14.10;12.70;;;;;;;14.41;99.72;97037.16;107313;1273;51491;-72
2022/06/05 00:56:59;;;;;;;14.30;12.60;;;;;;;14.39;99.72;97038.67;107335;1273;36434;-73
2022/06/05 00:59:30;;;;;;;15.60;14.10;;;;;;;14.36;99.82;97042.20;107263;1273;38197;-73
2022/06/05 01:02:01;;;;;;;15.10;13.60;;;;;;;14.33;99.92;97043.02;107266;1274;54055;-73
2022/06/05 01:04:37;;;;;;;16.40;14.70;;;;;;;14.30;99.84;97045.59;107284;1273;55725;-73
2022/06/05 01:07:09;;;;;;;17.40;15.70;;;;;;;14.25;99.77;97056.45;107425;1273;30260;-73
2022/06/05 01:09:43;;;;;;;15.80;14.10;;;;;;;14.19;99.74;97063.52;107392;1273;34323;-73
2022/06/05 01:12:28;;;;;;;13.20;11.90;;;;;;;14.14;99.75;97059.59;107358;1273;31359;-73
2022/06/05 01:15:10;;;;;;;12.60;11.40;;;;;;;14.15;99.95;97050.63;107282;1273;37604;-73
2022/06/05 01:17:51;;;;;;;12.40;11.30;;;;;;;14.14;100.00;97047.07;107373;1273;45376;-74
2022/06/05 01:20:34;;;;;;;15.80;14.30;;;;;;;14.18;100.00;97035.74;107299;1273;38482;-74
2022/06/05 01:23:28;;;;;;;13.60;12.00;;;;;;;14.21;99.77;97034.00;107348;1273;41376;-73
2022/06/05 01:26:11;;;;;;;14.50;13.00;;;;;;;14.14;99.36;97033.20;107254;1273;32202;-73
2022/06/05 01:28:53;;;;;;;14.50;13.00;;;;;;;14.10;99.41;97028.20;107337;1273;47593;-73
2022/06/05 01:31:29;;;;;;;11.50;9.50;;;;;;;14.06;99.68;97031.40;107272;1272;63683;-73
2022/06/05 01:34:20;;;;;;;10.20;9.20;;;;;;;14.06;99.98;97029.59;107223;1273;92255;-73
2022/06/05 01:36:57;;;;;;;9.80;8.90;;;;;;;14.10;100.00;97034.34;107290;1273;77934;-73
2022/06/05 01:39:36;;;;;;;9.60;8.60;;;;;;;14.15;100.00;97032.81;107360;1273;29688;-72
2022/06/05 01:42:12;;;;;;;8.40;7.50;;;;;;;14.22;100.00;97035.91;107306;1273;38170;-73
2022/06/05 01:44:48;;;;;;;11.10;9.80;;;;;;;14.28;99.96;97026.42;107243;1273;45273;-74
2022/06/05 01:47:24;;;;;;;11.90;10.70;;;;;;;14.17;99.18;97026.91;107358;1273;33240;-74
2022/06/05 01:50:00;;;;;;;15.50;13.60;;;;;;;14.05;99.22;97024.13;107267;1273;44059;-74
2022/06/05 01:52:35;;;;;;;8.90;8.00;;;;;;;13.99;99.76;97020.95;107347;1273;31870;-74
2022/06/05 01:55:13;;;;;;;12.20;10.40;;;;;;;13.93;100.00;97022.64;107369;1273;44330;-74
2022/06/05 01:57:45;;;;;;;13.70;12.40;;;;;;;13.91;100.00;97023.61;107219;1273;98675;-75
2022/06/05 02:00:20;;;;;;;13.20;12.00;;;;;;;13.92;100.00;97020.67;107289;1273;36770;-74
2022/06/05 02:02:58;;;;;;;10.70;9.60;;;;;;;13.92;100.00;97023.97;107355;1273;31714;-74
2022/06/05 02:05:38;;;;;;;10.30;9.30;;;;;;;13.91;100.00;97033.21;107356;1273;31619;-74
2022/06/05 02:08:16;;;;;;;12.20;10.80;;;;;;;13.87;100.00;97033.66;107404;1273;44649;-73
2022/06/05 02:10:52;;;;;;;8.30;7.50;;;;;;;13.85;100.00;97035.39;107346;1273;31255;-73
2022/06/05 02:13:26;;;;;;;9.70;8.50;;;;;;;13.85;100.00;97037.33;107305;1273;34416;-73
2022/06/05 02:15:57;;;;;;;10.60;9.60;;;;;;;13.83;100.00;97036.66;107195;1273;35117;-73
2022/06/05 02:18:28;;;;;;;10.00;8.90;;;;;;;13.81;100.00;97031.78;107222;1273;42044;-73
2022/06/05 02:20:59;;;;;;;11.90;10.70;;;;;;;13.79;100.00;97028.55;107151;1273;73491;-73
2022/06/05 02:23:35;;;;;;;11.60;10.50;;;;;;;13.77;100.00;97023.02;107186;1273;44401;-73
2022/06/05 02:26:08;;;;;;;10.50;9.50;;;;;;;13.76;100.00;97020.00;107134;1273;64511;-74
2022/06/05 02:28:40;;;;;;;11.20;10.10;;;;;;;13.76;100.00;97019.10;107436;1273;36658;-74
2022/06/05 02:31:26;;;;;;;10.50;9.50;;;;;;;13.75;100.00;97013.63;107223;1273;53658;-73
2022/06/05 02:34:09;;;;;;;12.90;11.70;;;;;;;13.76;100.00;97015.58;107201;1273;50554;-74
2022/06/05 02:36:50;;;;;;;13.40;12.20;;;;;;;13.79;100.00;97020.66;107360;1271;34808;-73
2022/06/05 02:39:35;;;;;;;13.40;12.10;;;;;;;13.81;100.00;97018.52;107173;1270;47506;-73
2022/06/05 02:42:16;;;;;;;12.90;11.60;;;;;;;13.83;100.00;97021.94;107048;1273;81861;-73
2022/06/05 02:44:54;;;;;;;12.80;11.60;;;;;;;13.86;100.00;97024.29;107014;1273;57336;-73
2022/06/05 02:47:37;;;;;;;12.40;11.10;;;;;;;13.88;100.00;97027.55;107168;1272;54453;-73
2022/06/05 02:50:14;;;;;;;13.40;11.90;;;;;;;13.91;100.00;97022.34;107311;1273;44098;-73
2022/06/05 02:52:46;;;;;;;12.10;10.90;;;;;;;13.91;100.00;97027.46;107233;1273;38878;-73
2022/06/05 02:55:20;;;;;;;12.10;10.90;;;;;;;13.86;100.00;97039.15;107255;1273;36855;-73
2022/06/05 02:57:51;;;;;;;12.60;11.30;;;;;;;13.85;100.00;97040.92;107231;1273;32807;-73
2022/06/05 03:00:25;;;;;;;13.50;12.20;;;;;;;13.88;100.00;97041.84;107132;1273;58264;-73
2022/06/05 03:05:46;;;;;;;13.10;11.80;;;;;;;14.00;100.00;97048.55;107255;1273;52429;-73
2022/06/05 03:08:19;;;;;;;12.60;11.40;;;;;;;14.03;100.00;97048.29;107223;1273;33250;-73
2022/06/05 03:10:50;;;;;;;13.90;12.50;;;;;;;14.07;100.00;97046.32;107299;1273;32907;-73
2022/06/05 03:13:22;;;;;;;13.90;12.50;;;;;;;14.11;100.00;97048.56;107238;1273;62564;-73
2022/06/05 03:15:53;;;;;;;13.80;12.40;;;;;;;14.16;100.00;97047.61;107280;1273;50358;-73
2022/06/05 03:18:25;;;;;;;14.60;13.10;;;;;;;14.21;100.00;97048.19;107367;1273;38207;-73
2022/06/05 03:20:59;;;;;;;15.20;13.70;;;;;;;14.23;100.00;97051.10;107351;1272;42962;-73
2022/06/05 03:23:32;;;;;;;13.50;12.10;;;;;;;14.25;100.00;97050.85;107328;1273;33830;-73
2022/06/05 03:26:03;;;;;;;13.90;12.50;;;;;;;14.32;100.00;97049.78;107287;1273;64758;-72
2022/06/05 03:28:34;;;;;;;13.90;12.50;;;;;;;14.39;100.00;97047.17;107302;1272;43834;-73
2022/06/05 03:31:08;;;;;;;13.60;12.20;;;;;;;14.42;100.00;97045.73;107176;1273;74589;-72
2022/06/05 03:33:39;;;;;;;13.60;12.20;;;;;;;14.42;100.00;97044.34;107331;1273;60347;-73
2022/06/05 03:36:13;;;;;;;12.60;11.20;;;;;;;14.43;100.00;97045.61;107271;1273;98517;-72
2022/06/05 03:38:44;;;;;;;11.90;10.60;;;;;;;14.45;100.00;97048.16;107276;1273;54346;-73
2022/06/05 03:41:18;;;;;;;11.40;10.30;;;;;;;14.46;100.00;97052.98;107285;1273;48811;-73
2022/06/05 03:43:50;;;;;;;11.30;10.20;;;;;;;14.50;100.00;97056.84;107331;1273;86801;-73
2022/06/05 03:46:21;;;;;;;12.30;10.80;;;;;;;14.55;100.00;97056.64;107361;1273;33055;-73
2022/06/05 03:48:52;;;;;;;10.80;9.80;;;;;;;14.69;100.00;97055.70;107401;1273;31649;-73
2022/06/05 03:51:24;;;;;;;9.70;8.70;;;;;;;14.91;100.00;97053.66;107321;1273;35716;-73
2022/06/05 03:53:55;;;;;;;9.60;8.40;;;;;;;15.11;100.00;97054.57;107323;1273;49244;-73
2022/06/05 03:56:28;;;;;;;10.50;8.30;;;;;;;15.21;100.00;97053.27;107194;1273;100782;-73
2022/06/05 03:59:00;;;;;;;10.50;9.40;;;;;;;15.27;100.00;97055.76;107270;1273;47657;-73
2022/06/05 04:01:31;;;;;;;12.30;11.10;;;;;;;15.34;100.00;97057.83;107443;1273;91172;-74
2022/06/05 04:04:02;;;;;;;13.30;12.00;;;;;;;15.37;100.00;97057.61;107492;1273;43626;-74
2022/06/05 04:06:33;;;;;;;15.50;13.80;;;;;;;15.42;100.00;97059.70;107348;1273;64210;-73
2022/06/05 04:09:08;;;;;;;13.60;12.20;;;;;;;15.50;100.00;97060.61;107399;1273;50733;-73
2022/06/05 04:11:41;;;;;;;14.60;12.70;;;;;;;15.58;100.00;97062.05;107489;1273;38689;-73
2022/06/05 04:14:12;;;;;;;13.00;11.70;;;;;;;15.66;99.92;97061.69;107502;1273;29869;-74
2022/06/05 04:16:44;;;;;;;12.50;11.30;;;;;;;15.72;99.57;97060.48;107486;1273;33903;-75
2022/06/05 04:19:15;;;;;;;13.20;11.30;;;;;;;15.76;99.29;97063.56;107449;1273;39906;-74
2022/06/05 04:21:47;;;;;;;11.50;10.30;;;;;;;15.82;99.18;97062.63;107460;1273;33265;-74
2022/06/05 04:24:20;;;;;;;11.10;10.00;;;;;;;15.88;98.96;97060.84;107476;1272;51951;-73
2022/06/05 04:26:51;;;;;;;10.70;9.60;;;;;;;15.95;98.96;97064.48;107433;1273;35531;-74
2022/06/05 04:29:22;;;;;;;10.40;9.40;;;;;;;16.04;98.72;97063.77;107311;1273;257280;-74
2022/06/05 04:31:54;;;;;;;10.10;9.10;;;;;;;16.09;98.33;97064.19;107389;1273;32159;-73
2022/06/05 04:34:25;;;;;;;10.30;9.30;;;;;;;16.12;98.01;97065.77;105869;1273;1981344;-74
2022/06/05 04:36:56;;;;;;;9.80;8.80;;;;;;;16.15;97.60;97064.52;107322;1273;59598;-73
2022/06/05 04:39:27;;;;;;;10.20;9.20;;;;;;;16.15;97.43;97067.19;107360;1273;34135;-73
2022/06/05 04:41:59;;;;;;;11.00;9.80;;;;;;;16.20;97.31;97064.54;107400;1273;32429;-73
2022/06/05 04:44:30;;;;;;;10.80;9.70;;;;;;;16.20;97.09;97063.40;107321;1273;40879;-73
2022/06/05 04:47:01;;;;;;;9.70;8.70;;;;;;;16.27;97.02;97067.35;107306;1273;50278;-73
2022/06/05 04:49:35;;;;;;;10.20;9.10;;;;;;;16.35;96.78;97069.99;107396;1273;30138;-73
2022/06/05 04:52:07;;;;;;;9.50;8.60;;;;;;;16.42;96.49;97068.81;107454;1273;30929;-73
2022/06/05 04:54:38;;;;;;;10.80;9.70;;;;;;;16.47;96.03;97072.34;107426;1273;31238;-73
2022/06/05 04:57:09;;;;;;;10.70;9.60;;;;;;;16.52;95.72;97069.73;107431;1273;35751;-74
2022/06/05 04:59:41;;;;;;;10.40;9.20;;;;;;;16.55;95.34;97068.55;107406;1273;40187;-73
2022/06/05 05:02:12;;;;;;;9.80;8.80;;;;;;;16.71;95.44;97068.40;107406;1273;33345;-73
2022/06/05 05:04:47;;;;;;;11.40;9.80;;;;;;;16.82;94.69;97068.63;107389;1273;32926;-74
2022/06/05 05:07:18;;;;;;;10.40;9.20;;;;;;;16.80;94.02;97069.79;107373;1273;37151;-73
2022/06/05 05:09:52;;;;;;;11.30;10.20;;;;;;;16.79;93.81;97067.57;107320;1273;64444;-74
2022/06/05 05:12:24;;;;;;;10.50;9.50;;;;;;;16.78;93.65;97068.29;107371;1273;38835;-74
2022/06/05 05:14:55;;;;;;;12.00;10.80;;;;;;;16.71;93.02;97066.92;107399;1273;30709;-74
2022/06/05 05:17:26;;;;;;;11.80;10.60;;;;;;;16.58;92.71;97071.46;107328;1273;48033;-73
2022/06/05 05:19:58;;;;;;;11.40;10.30;;;;;;;16.52;92.91;97077.52;107320;1273;48062;-73
2022/06/05 05:22:29;;;;;;;11.60;10.00;;;;;;;16.56;93.14;97075.73;107336;1273;33648;-74
2022/06/05 05:25:00;;;;;;;11.70;10.10;;;;;;;16.68;93.27;97080.62;107352;1273;56328;-74
2022/06/05 05:27:31;;;;;;;12.50;11.20;;;;;;;16.83;93.01;97078.96;107322;1273;75442;-74
2022/06/05 05:30:04;;;;;;;12.00;10.70;;;;;;;16.92;92.34;97083.78;107352;1273;52895;-74
2022/06/05 05:32:35;;;;;;;12.90;11.60;;;;;;;16.99;91.88;97089.00;107343;1273;32562;-74
2022/06/05 05:35:10;;;;;;;12.10;10.70;;;;;;;17.90;94.03;97087.64;107383;1273;30505;-74
2022/06/05 05:37:41;;;;;;;10.20;9.20;;;;;;;20.17;93.35;97081.64;107490;1273;29685;-74
2022/06/05 05:43:02;;;;;;;10.80;9.70;;;;;;;20.47;84.98;97079.70;107240;1273;73242;-73
2022/06/05 05:45:33;;;;;;;10.60;9.50;;;;;;;21.17;84.86;97083.58;107382;1273;38151;-74
2022/06/05 05:48:05;;;;;;;9.80;8.90;;;;;;;22.32;83.28;97079.66;107367;1273;35140;-74
2022/06/05 05:50:37;;;;;;;8.80;7.90;;;;;;;23.38;81.71;97082.47;107355;1273;46953;-74
2022/06/05 05:53:08;;;;;;;8.00;7.20;;;;;;;25.54;80.72;97076.64;107413;1273;34617;-74
2022/06/05 05:55:39;;;;;;;9.20;8.40;;;;;;;27.47;75.20;97080.05;107427;1273;32172;-74
2022/06/05 05:58:11;;;;;;;8.40;7.60;;;;;;;28.73;66.71;97081.67;107404;1273;40463;-74
2022/06/05 06:00:42;;;;;;;9.10;8.30;;;;;;;29.05;64.72;97079.73;107423;1273;32547;-75
2022/06/05 06:03:13;;;;;;;7.90;7.20;;;;;;;29.96;61.57;97075.25;107209;1273;93354;-75
2022/06/05 06:05:47;;;;;;;8.30;7.60;;;;;;;30.03;56.35;97071.73;107378;1273;33266;-75
2022/06/05 06:08:18;;;;;;;8.60;7.70;;;;;;;30.22;55.95;97069.50;107386;1273;32349;-75
2022/06/05 06:10:50;;;;;;;7.70;7.00;;;;;;;30.84;54.41;97068.06;107246;1273;50424;-75
2022/06/05 06:13:22;;;;;;;8.60;7.90;;;;;;;31.10;51.97;97070.34;107368;1273;32375;-75
2022/06/05 06:15:53;;;;;;;8.90;8.00;;;;;;;31.12;50.43;97070.09;107385;1273;46919;-75
2022/06/05 06:18:24;;;;;;;8.20;7.50;;;;;;;30.92;49.34;97071.95;107322;1273;46084;-75
2022/06/05 06:20:56;;;;;;;8.30;7.40;;;;;;;31.44;49.45;97072.30;107313;1273;55622;-75
2022/06/05 06:23:27;;;;;;;8.10;7.40;;;;;;;31.47;47.21;97071.48;107350;1273;52332;-75
2022/06/05 06:25:59;;;;;;;8.00;7.30;;;;;;;31.62;47.35;97072.30;107360;1273;50837;-75
2022/06/05 06:28:31;;;;;;;7.60;7.00;;;;;;;31.57;45.28;97075.02;107284;1273;40378;-74
2022/06/05 06:31:06;;;;;;;8.00;7.30;;;;;;;31.13;45.68;97071.34;107277;1273;44318;-75
2022/06/05 06:33:38;;;;;;;7.80;7.20;;;;;;;31.12;44.57;97066.66;107406;1273;98573;-75
2022/06/05 06:36:11;;;;;;;8.20;7.40;;;;;;;30.79;44.37;97069.28;107429;1273;61386;-75
2022/06/05 06:38:43;;;;;;;7.90;7.10;;;;;;;30.63;44.53;97066.54;107382;1273;55918;-75
2022/06/05 06:41:18;;;;;;;8.30;7.60;;;;;;;30.72;43.48;97062.73;107369;1273;37681;-75
2022/06/05 06:43:50;;;;;;;7.90;7.10;;;;;;;30.78;44.06;97067.17;107407;1273;31312;-75
2022/06/05 06:46:22;;;;;;;7.60;6.90;;;;;;;30.93;43.06;97064.73;107323;1273;36165;-73
2022/06/05 06:48:53;;;;;;;8.00;7.30;;;;;;;30.98;42.57;97068.01;107298;1273;39941;-74
2022/06/05 06:51:27;;;;;;;8.00;7.10;;;;;;;31.13;42.36;97063.83;107409;1273;33914;-73
2022/06/05 06:53:58;;;;;;;7.80;7.10;;;;;;;30.84;41.73;97067.52;107393;1273;36534;-74
2022/06/05 06:56:31;;;;;;;8.30;7.60;;;;;;;30.36;41.60;97070.85;107371;1273;42720;-73
2022/06/05 06:59:04;;;;;;;8.70;7.80;;;;;;;30.35;43.38;97063.59;107392;1273;35054;-73
2022/06/05 07:01:35;;;;;;;8.20;7.40;;;;;;;31.39;42.67;97062.77;107393;1273;34509;-74
2022/06/05 07:04:07;;;;;;;7.70;6.90;;;;;;;32.89;42.76;97063.10;107352;1273;40070;-74
2022/06/05 07:06:38;;;;;;;8.80;7.20;;;;;;;34.51;41.21;97054.81;107390;1273;30810;-74
2022/06/05 07:09:16;;;;;;;7.40;6.70;;;;;;;35.45;40.16;97052.71;107340;1273;53545;-74
2022/06/05 07:11:48;;;;;;;7.00;6.30;;;;;;;36.36;38.29;97054.38;107309;1273;41706;-74
2022/06/05 07:14:19;;;;;;;7.00;6.30;;;;;;;36.95;37.56;97055.88;107266;1273;35597;-74
2022/06/05 07:16:50;;;;;;;7.20;6.60;;;;;;;37.87;35.39;97052.88;107175;1273;121216;-75
2022/06/05 07:19:21;;;;;;;6.70;6.10;;;;;;;37.27;34.28;97047.97;107316;1273;39636;-75
2022/06/05 07:21:53;;;;;;;7.80;7.00;;;;;;;37.80;35.06;97050.85;107232;1273;150509;-75
2022/06/05 07:24:24;;;;;;;6.30;5.70;;;;;;;38.47;33.34;97042.24;107260;1273;47795;-76
2022/06/05 07:26:56;;;;;;;6.70;6.00;;;;;;;38.15;32.73;97043.98;107311;1273;49428;-75
2022/06/05 07:29:27;;;;;;;6.20;5.70;;;;;;;38.62;33.21;97046.11;106979;1273;155290;-75
2022/06/05 07:31:58;;;;;;;6.20;5.70;;;;;;;39.80;32.58;97042.91;107325;1273;49142;-72
2022/06/05 07:34:30;;;;;;;6.30;5.50;;;;;;;40.65;32.16;97045.94;107403;1273;33191;-72
2022/06/05 07:37:02;;;;;;;6.40;5.80;;;;;;;41.61;29.18;97044.44;107365;1273;36052;-72
2022/06/05 07:39:34;;;;;;;5.30;4.90;;;;;;;40.74;29.25;97039.46;107384;1273;39128;-72
2022/06/05 07:42:07;;;;;;;5.10;4.60;;;;;;;41.50;29.46;97046.73;107263;1273;46140;-73
2022/06/05 07:44:39;;;;;;;4.90;4.50;;;;;;;40.77;26.08;97043.78;107398;1274;35986;-73
2022/06/05 07:47:11;;;;;;;5.80;4.80;;;;;;;39.86;28.07;97039.32;107464;1273;34937;-73
2022/06/05 07:49:43;;;;;;;5.40;4.10;;;;;;;41.24;28.56;97042.83;107461;1273;34482;-74
2022/06/05 07:55:04;;;;;;;5.20;4.50;;;;;;;42.52;24.19;97044.16;107181;1273;33360;-74
2022/06/05 07:57:35;;;;;;;5.70;4.90;;;;;;;41.49;25.52;97052.29;107295;1273;33341;-75
2022/06/05 08:00:11;;;;;;;3.80;3.50;;;;;;;42.33;26.39;97053.15;107389;1273;54195;-74
2022/06/05 08:02:43;;;;;;;4.50;4.10;;;;;;;42.06;22.20;97055.95;107375;1273;32019;-74
2022/06/05 08:05:15;;;;;;;3.80;3.40;;;;;;;40.17;24.42;97061.21;107331;1273;50538;-75
2022/06/05 08:07:47;;;;;;;4.10;3.70;;;;;;;40.91;25.82;97057.92;107402;1273;35290;-74
2022/06/05 08:10:20;;;;;;;4.60;4.10;;;;;;;42.25;24.87;97059.13;107365;1273;36599;-74
2022/06/05 08:12:55;;;;;;;4.50;4.10;;;;;;;42.86;24.87;97064.02;107395;1273;29339;-74
2022/06/05 08:15:29;;;;;;;6.40;4.40;;;;;;;43.89;24.58;97063.61;107407;1273;35791;-74
2022/06/05 08:18:02;;;;;;;5.20;4.70;;;;;;;43.40;23.50;97062.67;107374;1273;38341;-74
2022/06/05 08:20:33;;;;;;;5.70;5.10;;;;;;;39.75;24.81;97062.17;107404;1273;35681;-74
2022/06/05 08:23:05;;;;;;;4.80;4.40;;;;;;;38.39;27.08;97063.35;107298;1273;58444;-74
2022/06/05 08:25:38;;;;;;;4.00;3.60;;;;;;;40.08;26.65;97059.16;107355;1273;48004;-74
2022/06/05 08:28:10;;;;;;;3.90;3.60;;;;;;;39.80;22.03;97064.73;107412;1273;34261;-74
2022/06/05 08:30:43;;;;;;;4.90;3.70;;;;;;;37.50;23.90;97068.85;107383;1273;42553;-74
2022/06/05 08:33:15;;;;;;;4.60;4.20;;;;;;;35.79;26.43;97070.78;107411;1273;32963;-74
2022/06/05 08:35:48;;;;;;;5.20;4.50;;;;;;;34.26;28.38;97069.00;107339;1273;39323;-73
2022/06/05 08:41:34;;;;;;;6.80;5.30;;;;;;;32.37;31.58;97068.44;107305;1274;37681;-72
2022/06/05 08:44:14;;;;;;;5.40;4.80;;;;;;;34.97;31.84;97063.27;107399;1273;32208;-71
2022/06/05 08:46:51;;;;;;;5.00;4.60;;;;;;;36.19;29.68;97063.36;107349;1273;37223;-72
2022/06/05 08:49:31;;;;;;;4.80;4.30;;;;;;;35.14;29.47;97065.52;107322;1273;45876;-72
2022/06/05 08:52:12;;;;;;;5.30;4.90;;;;;;;35.28;28.83;97060.70;107372;1273;35449;-71
2022/06/05 08:54:51;;;;;;;5.00;4.60;;;;;;;34.53;30.21;97062.26;107341;1273;39249;-72
2022/06/05 08:57:27;;;;;;;5.80;5.30;;;;;;;33.45;30.76;97063.48;107320;1273;79670;-69
2022/06/05 09:00:02;;;;;;;5.40;5.00;;;;;;;32.36;31.70;97065.06;107395;1273;29308;-69
2022/06/05 09:02:43;;;;;;;5.60;5.00;;;;;;;31.49;32.64;97064.42;107399;1273;32045;-71
2022/06/05 09:05:22;;;;;;;5.10;4.60;;;;;;;30.44;33.51;97063.64;107412;1273;31449;-69
2022/06/05 09:07:57;;;;;;;5.10;4.70;;;;;;;29.67;34.35;97064.58;107380;1273;27025;-68
2022/06/05 09:10:35;;;;;;;7.40;5.60;;;;;;;28.73;35.40;97066.26;107347;1273;38171;-69
2022/06/05 09:13:13;;;;;;;5.60;5.10;;;;;;;28.00;36.75;97064.59;107369;1273;33289;-68
2022/06/05 09:15:50;;;;;;;7.00;5.80;;;;;;;28.15;37.91;97060.46;107396;1273;32101;-70
2022/06/05 09:18:26;;;;;;;6.30;5.20;;;;;;;28.51;37.82;97063.38;107366;1273;35898;-76
2022/06/05 09:21:00;;;;;;;6.20;5.50;;;;;;;28.33;37.62;97061.27;107272;1273;101898;-71
2022/06/05 09:23:44;;;;;;;6.10;5.50;;;;;;;27.82;37.76;97059.89;107362;1273;38299;-71
2022/06/05 09:26:20;;;;;;;7.10;5.40;;;;;;;27.55;39.00;97064.02;107358;1273;44790;-72
2022/06/05 09:29:13;;;;;;;5.90;5.10;;;;;;;27.32;39.39;97061.83;107381;1273;43213;-71
2022/06/05 09:32:00;;;;;;;6.90;6.30;;;;;;;26.88;39.82;97058.60;107322;1273;42075;-73
2022/06/05 09:34:35;;;;;;;7.00;6.30;;;;;;;26.09;40.84;97062.08;107228;1273;60168;-72
2022/06/05 09:37:18;;;;;;;8.40;7.60;;;;;;;26.00;42.33;97060.86;107224;1273;55517;-72
2022/06/05 09:39:57;;;;;;;8.10;7.30;;;;;;;25.79;43.01;97058.41;107386;1273;41088;-72
2022/06/05 09:42:44;;;;;;;8.20;7.40;;;;;;;25.30;43.43;97059.32;107316;1273;44862;-72
2022/06/05 09:45:27;;;;;;;8.90;7.70;;;;;;;25.32;44.14;97058.27;107394;1273;33558;-72
2022/06/05 09:48:14;;;;;;;9.10;7.20;;;;;;;25.78;44.11;97055.90;107384;1273;31853;-71
2022/06/05 09:50:45;;;;;;;8.60;7.60;;;;;;;26.32;43.44;97058.80;107349;1273;35667;-72
2022/06/05 09:53:22;;;;;;;8.40;6.60;;;;;;;26.54;42.42;97054.59;107306;1273;38365;-71
2022/06/05 09:56:03;;;;;;;7.00;6.40;;;;;;;26.34;42.30;97049.98;107365;1273;37010;-72
2022/06/05 09:58:55;;;;;;;6.60;6.00;;;;;;;26.24;41.59;97054.35;107328;1273;43294;-71
2022/06/05 10:01:34;;;;;;;7.70;6.20;;;;;;;26.21;42.16;97054.00;107355;1273;46029;-73
2022/06/05 10:04:07;;;;;;;7.20;6.50;;;;;;;26.46;41.99;97049.98;107346;1273;50600;-68
2022/06/05 10:06:42;;;;;;;7.40;6.80;;;;;;;26.48;42.29;97046.75;107451;1271;32334;-70
2022/06/05 10:09:16;;;;;;;7.00;6.30;;;;;;;26.69;41.97;97048.61;107300;1273;56335;-70
2022/06/05 10:11:59;;;;;;;6.70;6.00;;;;;;;26.38;40.63;97048.55;107403;1271;40843;-69
2022/06/05 10:14:39;;;;;;;6.50;5.90;;;;;;;25.68;40.15;97055.89;106025;1273;1837782;-70
2022/06/05 10:17:26;;;;;;;7.30;6.50;;;;;;;25.66;40.83;97055.80;107369;1273;43416;-71
2022/06/05 10:20:29;;;;;;;7.80;6.80;;;;;;;25.78;40.86;97046.68;107302;1273;48622;-71
2022/06/05 10:23:10;;;;;;;6.30;5.80;;;;;;;25.80;42.15;97046.09;107354;1273;40275;-71
2022/06/05 10:25:48;;;;;;;7.00;6.00;;;;;;;25.78;40.53;97043.88;107448;1273;32717;-70
2022/06/05 10:28:23;;;;;;;7.20;6.30;;;;;;;25.90;41.57;97047.23;107348;1273;40378;-70
2022/06/05 10:31:01;;;;;;;7.70;7.00;;;;;;;26.28;42.01;97043.46;107355;1271;39689;-70
2022/06/05 10:33:49;;;;;;;8.50;7.50;;;;;;;26.60;41.27;97047.36;107264;1273;55988;-73
2022/06/05 10:36:23;;;;;;;6.90;6.20;;;;;;;26.83;41.35;97047.90;107133;1273;112717;-74
2022/06/05 10:39:14;;;;;;;7.00;6.20;;;;;;;27.03;41.40;97048.42;107037;1273;87495;-73
2022/06/05 10:42:03;;;;;;;6.70;6.00;;;;;;;27.10;39.08;97039.38;106275;1273;273044;-74
2022/06/05 10:44:42;;;;;;;6.80;6.20;;;;;;;26.69;39.25;97039.52;106506;1273;235341;-73
2022/06/05 10:47:18;;;;;;;9.80;7.20;;;;;;;26.40;38.77;97036.15;107318;1273;73858;-73
2022/06/05 10:49:57;;;;;;;8.70;7.80;;;;;;;26.24;40.93;97039.22;107313;1273;58104;-73
2022/06/05 10:52:36;;;;;;;9.80;8.40;;;;;;;26.35;41.18;97036.26;107182;1273;85453;-73
2022/06/05 10:55:30;;;;;;;9.40;8.40;;;;;;;26.09;41.39;97036.45;106828;1273;133270;-73
2022/06/05 10:58:15;;;;;;;8.80;8.00;;;;;;;25.76;41.57;97034.23;107344;1273;35265;-73
2022/06/05 11:01:04;;;;;;;7.50;6.80;;;;;;;25.78;42.13;97028.91;107372;1273;33720;-73
2022/06/05 11:03:50;;;;;;;7.60;6.70;;;;;;;26.05;41.59;97024.69;107337;1273;64836;-73
2022/06/05 11:06:35;;;;;;;8.40;6.40;;;;;;;26.27;41.68;97021.92;107387;1272;37131;-73
2022/06/05 11:09:26;;;;;;;7.50;5.90;;;;;;;26.31;40.84;97025.63;107338;1272;45216;-73
2022/06/05 11:15:11;;;;;;;7.30;6.40;;;;;;;26.62;39.33;97024.44;107267;1273;81095;-73
2022/06/05 11:17:55;;;;;;;6.80;6.20;;;;;;;26.57;39.68;97017.94;107390;1273;58367;-73
2022/06/05 11:20:29;;;;;;;6.90;6.30;;;;;;;26.68;40.14;97014.41;107382;1274;34036;-73
2022/06/05 11:23:04;;;;;;;9.30;7.00;;;;;;;26.63;40.43;97009.61;107293;1273;68285;-72
2022/06/05 11:25:47;;;;;;;7.50;6.80;;;;;;;26.38;40.64;97012.21;107348;1274;38385;-72
2022/06/05 11:28:43;;;;;;;7.50;6.50;;;;;;;25.95;40.76;97017.88;107136;1274;84282;-73
2022/06/05 11:31:26;;;;;;;7.50;6.80;;;;;;;25.89;41.58;97017.17;107334;1274;38621;-73
2022/06/05 11:34:16;;;;;;;6.90;6.30;;;;;;;25.74;40.54;97013.39;107260;1271;72356;-73
2022/06/05 11:36:51;;;;;;;6.00;5.20;;;;;;;25.22;41.25;97005.55;107363;1274;44901;-73
2022/06/05 11:39:38;;;;;;;6.20;5.60;;;;;;;25.26;40.73;97004.06;107356;1274;33285;-73
2022/06/05 11:42:21;;;;;;;5.50;5.00;;;;;;;25.10;40.09;97004.58;107298;1271;93300;-73
2022/06/05 11:45:00;;;;;;;6.20;5.70;;;;;;;25.03;40.29;97005.38;107152;1274;92270;-73
2022/06/05 11:47:44;;;;;;;6.30;5.60;;;;;;;25.00;41.71;97003.86;107395;1273;45239;-73
2022/06/05 11:50:28;;;;;;;7.30;5.00;;;;;;;25.36;41.40;96998.17;107118;1274;100418;-73
2022/06/05 11:53:12;;;;;;;4.50;4.10;;;;;;;25.51;40.52;96994.58;105126;1274;2347579;-73
2022/06/05 11:55:51;;;;;;;5.10;4.40;;;;;;;25.78;40.10;96992.98;107421;1274;55447;-72
2022/06/05 11:58:29;;;;;;;5.20;4.20;;;;;;;25.97;39.36;96984.39;107365;1273;33221;-73
2022/06/05 12:01:07;;;;;;;5.00;4.40;;;;;;;26.07;39.78;96976.73;107050;1274;109675;-73
2022/06/05 12:03:42;;;;;;;5.20;4.70;;;;;;;26.26;39.92;96976.24;107343;1273;32440;-72
2022/06/05 12:06:22;;;;;;;7.10;4.80;;;;;;;26.40;39.11;96971.69;107398;1274;43696;-72
2022/06/05 12:08:57;;;;;;;5.60;5.10;;;;;;;26.39;39.12;96966.17;107238;1274;80559;-73
2022/06/05 12:11:39;;;;;;;5.40;4.90;;;;;;;26.14;38.43;96970.37;107348;1274;75497;-73